TimeCST,TemperatureF,Dew PointF,Humidity,Sea Level PressureIn,VisibilityMPH,Wind Direction,Wind SpeedMPH,Gust SpeedMPH,PrecipitationIn,Events,Conditions,WindDirDegrees,DateUTC
12:52 AM,37.9,28.9,70,30.37,9.0,West,3.5,-,N/A,,Clear,270,2012-11-16 06:52:00
1:52 AM,37.9,28.0,68,30.38,9.0,WNW,3.5,-,N/A,,Clear,290,2012-11-16 07:52:00
2:52 AM,37.0,27.0,67,30.39,10.0,WNW,4.6,-,N/A,,Clear,290,2012-11-16 08:52:00
3:52 AM,35.1,27.0,72,30.40,10.0,NW,4.6,-,N/A,,Clear,310,2012-11-16 09:52:00
4:52 AM,36.0,28.0,73,30.41,9.0,NW,3.5,-,N/A,,Clear,310,2012-11-16 10:52:00
5:52 AM,35.1,28.9,78,30.43,10.0,NW,4.6,-,N/A,,Clear,320,2012-11-16 11:52:00
6:24 AM,35.6,30.2,81,30.41,8.0,NW,4.6,-,N/A,,Mostly Cloudy,320,2012-11-16 12:24:00
6:52 AM,35.1,30.9,85,30.44,7.0,Calm,Calm,-,N/A,,Mostly Cloudy,0,2012-11-16 12:52:00
7:52 AM,37.0,33.1,86,30.46,6.0,WNW,4.6,-,N/A,,Mostly Cloudy,300,2012-11-16 13:52:00
8:52 AM,39.9,36.0,86,30.47,6.0,Calm,Calm,-,N/A,,Overcast,0,2012-11-16 14:52:00
9:52 AM,44.1,37.9,79,30.48,8.0,North,4.6,-,N/A,,Overcast,350,2012-11-16 15:52:00
10:05 AM,44.6,39.2,81,30.46,10.0,North,5.8,-,N/A,,Overcast,360,2012-11-16 16:05:00
10:52 AM,46.9,39.9,77,30.48,9.0,NNE,5.8,-,N/A,,Mostly Cloudy,20,2012-11-16 16:52:00
11:52 AM,46.9,41.0,80,30.47,5.0,NNE,5.8,-,N/A,,Haze,20,2012-11-16 17:52:00
12:12 PM,46.4,41.0,81,30.46,5.0,NNE,8.1,-,N/A,,Haze,30,2012-11-16 18:12:00
12:52 PM,46.9,39.9,77,30.48,6.0,NE,9.2,-,N/A,,Haze,40,2012-11-16 18:52:00
1:52 PM,44.1,39.0,82,30.49,6.0,NNE,11.5,-,N/A,,Haze,30,2012-11-16 19:52:00
2:11 PM,44.6,39.2,81,30.47,7.0,NE,13.8,-,N/A,,Mostly Cloudy,40,2012-11-16 20:11:00
2:36 PM,44.6,39.2,81,30.47,7.0,NE,11.5,-,N/A,,Scattered Clouds,40,2012-11-16 20:36:00
2:52 PM,44.1,39.0,82,30.50,7.0,NE,9.2,-,N/A,,Scattered Clouds,50,2012-11-16 20:52:00
3:52 PM,43.0,37.9,82,30.50,9.0,NE,8.1,-,N/A,,Scattered Clouds,50,2012-11-16 21:52:00
4:52 PM,39.9,37.0,89,30.50,9.0,ENE,5.8,-,N/A,,Scattered Clouds,60,2012-11-16 22:52:00
5:52 PM,39.9,36.0,86,30.50,10.0,ENE,4.6,-,N/A,,Scattered Clouds,60,2012-11-16 23:52:00
6:52 PM,37.9,35.1,89,30.50,10.0,ENE,3.5,-,N/A,,Partly Cloudy,70,2012-11-17 00:52:00
7:52 PM,36.0,33.1,89,30.49,10.0,East,3.5,-,N/A,,Scattered Clouds,90,2012-11-17 01:52:00
8:52 PM,36.0,34.0,93,30.49,8.0,Calm,Calm,-,N/A,,Scattered Clouds,0,2012-11-17 02:52:00
9:52 PM,35.1,34.0,96,30.49,8.0,Calm,Calm,-,N/A,,Partly Cloudy,0,2012-11-17 03:52:00
10:52 PM,34.0,33.1,96,30.49,7.0,Calm,Calm,-,N/A,,Partly Cloudy,0,2012-11-17 04:52:00
11:52 PM,30.9,28.9,92,30.51,5.0,Calm,Calm,-,N/A,,Clear,0,2012-11-17 05:52:00